Time;durP1;ratioP1;P1;durP2;ratioP2;P2;SDS_P1;SDS_P2;PMS_P1;PMS_P2;Temp;Humidity;BMP_temperature;BMP_pressure;BME280_temperature;BME280_humidity;BME280_pressure;Samples;Min_cycle;Max_cycle;Signal;HPM_P1;HPM_P2
2023/12/20 00:00:22;;;;;;;13.15;1.92;;;5.80;99.90;;;;;;5091529;28;20438;-72
2023/12/20 00:02:47;;;;;;;14.87;1.70;;;5.80;99.90;;;;;;5089804;28;20402;-72
2023/12/20 00:05:14;;;;;;;15.37;2.47;;;5.80;99.90;;;;;;5089787;28;20408;-72
2023/12/20 00:07:40;;;;;;;12.85;1.85;;;5.80;99.90;;;;;;5088915;28;20406;-72
2023/12/20 00:10:06;;;;;;;20.05;2.20;;;5.70;99.90;;;;;;5089655;28;20429;-72
2023/12/20 00:12:31;;;;;;;15.52;2.67;;;5.70;99.90;;;;;;5089704;28;20436;-72
2023/12/20 00:14:57;;;;;;;15.17;2.80;;;5.70;99.90;;;;;;5087824;28;20523;-72
2023/12/20 00:17:23;;;;;;;12.00;2.17;;;5.70;99.90;;;;;;5088279;28;20936;-72
2023/12/20 00:19:48;;;;;;;14.97;2.00;;;5.70;99.90;;;;;;5088862;28;20419;-72
2023/12/20 00:22:14;;;;;;;16.10;2.17;;;5.70;99.90;;;;;;5087733;28;20399;-72
2023/12/20 00:24:39;;;;;;;14.95;2.50;;;5.70;99.90;;;;;;5088755;28;20388;-71
2023/12/20 00:27:05;;;;;;;15.97;2.20;;;5.70;99.90;;;;;;5087961;28;20760;-72
2023/12/20 00:29:30;;;;;;;13.93;2.03;;;5.70;99.90;;;;;;5087840;28;20432;-72
2023/12/20 00:31:56;;;;;;;13.07;1.73;;;5.70;99.90;;;;;;5087373;28;20410;-72
2023/12/20 00:34:22;;;;;;;11.52;1.67;;;5.70;99.90;;;;;;5088595;28;20435;-72
2023/12/20 00:36:47;;;;;;;12.17;1.93;;;5.70;99.90;;;;;;5087736;28;20442;-72
2023/12/20 00:39:13;;;;;;;10.77;1.80;;;5.70;99.90;;;;;;5086596;28;20907;-72
2023/12/20 00:41:39;;;;;;;12.48;1.73;;;5.70;99.90;;;;;;5086413;28;20910;-72
2023/12/20 00:44:05;;;;;;;12.77;1.85;;;5.70;99.90;;;;;;5086017;28;20441;-72
2023/12/20 00:46:31;;;;;;;13.60;2.15;;;5.80;99.90;;;;;;5089718;28;20837;-72
2023/12/20 00:48:56;;;;;;;12.87;2.20;;;5.80;99.90;;;;;;5089750;28;20408;-72
2023/12/20 00:51:22;;;;;;;14.38;2.35;;;5.80;99.90;;;;;;5089598;28;20406;-72
2023/12/20 00:53:50;;;;;;;13.27;2.30;;;5.90;99.90;;;;;;5090539;28;20435;-72
2023/12/20 00:56:15;;;;;;;12.93;1.88;;;5.80;99.90;;;;;;5090060;28;20500;-72
2023/12/20 00:58:41;;;;;;;15.10;2.30;;;5.80;99.90;;;;;;5088866;28;20410;-72
2023/12/20 01:01:07;;;;;;;11.95;1.88;;;5.80;99.90;;;;;;5090155;28;20398;-72
2023/12/20 01:03:32;;;;;;;13.43;1.93;;;5.80;99.90;;;;;;5093223;28;20862;-72
2023/12/20 01:05:58;;;;;;;14.88;2.13;;;5.80;99.90;;;;;;5091287;28;20402;-72
2023/12/20 01:08:23;;;;;;;15.37;2.00;;;5.80;99.90;;;;;;5092197;28;20438;-72
2023/12/20 01:10:49;;;;;;;14.25;2.70;;;5.80;99.90;;;;;;5092492;28;20480;-72
2023/12/20 01:13:15;;;;;;;13.40;2.60;;;5.90;99.90;;;;;;5081627;28;20426;-72
2023/12/20 01:15:41;;;;;;;15.93;2.00;;;5.90;99.90;;;;;;5089477;28;20484;-72
2023/12/20 01:18:06;;;;;;;20.13;2.50;;;5.90;99.90;;;;;;5095678;28;20422;-72
2023/12/20 01:20:32;;;;;;;13.32;1.83;;;5.90;99.90;;;;;;5095716;28;20932;-72
2023/12/20 01:22:58;;;;;;;15.73;2.07;;;5.90;99.90;;;;;;5095034;28;20411;-72
2023/12/20 01:25:23;;;;;;;16.67;2.13;;;6.00;99.90;;;;;;5103850;28;21269;-72
2023/12/20 01:27:50;;;;;;;14.52;2.15;;;6.10;99.90;;;;;;5103399;28;20965;-72
2023/12/20 01:30:15;;;;;;;14.85;2.20;;;6.10;99.90;;;;;;5098011;28;20829;-72
2023/12/20 01:32:41;;;;;;;19.42;2.40;;;6.10;99.90;;;;;;5097379;28;20481;-72
2023/12/20 01:35:07;;;;;;;17.97;2.47;;;6.10;99.90;;;;;;5104701;28;20511;-72
2023/12/20 01:37:32;;;;;;;15.02;2.30;;;6.10;99.90;;;;;;5101705;28;20401;-72
2023/12/20 01:39:58;;;;;;;15.23;2.17;;;6.10;99.90;;;;;;5106700;28;20483;-72
2023/12/20 01:42:24;;;;;;;12.43;1.90;;;6.10;99.90;;;;;;5100569;28;20406;-72
2023/12/20 01:44:50;;;;;;;17.83;2.50;;;6.10;99.90;;;;;;5105133;28;20473;-72
2023/12/20 01:47:16;;;;;;;10.60;1.90;;;6.10;99.90;;;;;;5094180;28;21002;-72
2023/12/20 01:49:42;;;;;;;12.57;2.17;;;6.10;99.90;;;;;;5097288;28;20433;-72
2023/12/20 01:52:08;;;;;;;16.58;2.42;;;6.10;99.90;;;;;;5104285;28;20424;-72
2023/12/20 01:54:35;;;;;;;14.15;2.33;;;6.10;99.90;;;;;;5099984;28;20468;-72
2023/12/20 01:57:02;;;;;;;16.05;2.55;;;6.10;99.90;;;;;;5087163;28;20879;-72
2023/12/20 01:59:29;;;;;;;14.20;2.40;;;6.10;99.90;;;;;;5099678;28;20410;-72
2023/12/20 02:01:55;;;;;;;14.90;1.95;;;6.10;99.90;;;;;;5104776;28;20408;-72
2023/12/20 02:04:20;;;;;;;16.17;1.85;;;6.00;99.90;;;;;;5098628;28;20405;-72
2023/12/20 02:06:47;;;;;;;14.88;2.17;;;6.00;99.90;;;;;;5103150;28;20766;-72
2023/12/20 02:09:12;;;;;;;11.52;1.88;;;5.90;99.90;;;;;;5098728;28;20768;-72
2023/12/20 02:11:38;;;;;;;13.73;2.28;;;5.90;99.90;;;;;;5102797;28;20408;-72
2023/12/20 02:14:04;;;;;;;12.07;1.97;;;5.80;99.90;;;;;;5098165;28;20441;-72
2023/12/20 02:16:30;;;;;;;12.43;2.45;;;5.90;99.90;;;;;;5103054;28;20412;-72
2023/12/20 02:18:56;;;;;;;13.37;1.97;;;5.90;99.90;;;;;;5099586;28;20405;-72
2023/12/20 02:21:31;;;;;;;16.52;2.78;;;5.90;99.90;;;;;;5098722;28;20926;-73
2023/12/20 02:23:57;;;;;;;13.77;2.28;;;5.90;99.90;;;;;;5099005;28;20398;-72
2023/12/20 02:26:22;;;;;;;17.92;2.83;;;5.90;99.90;;;;;;5106205;28;20396;-72
2023/12/20 02:28:48;;;;;;;14.57;2.67;;;5.90;99.90;;;;;;5101498;28;20943;-72
2023/12/20 02:31:13;;;;;;;17.20;2.50;;;5.90;99.90;;;;;;5106180;28;20928;-72
2023/12/20 02:33:39;;;;;;;16.90;2.58;;;5.90;99.90;;;;;;5099999;28;21118;-72
2023/12/20 02:36:06;;;;;;;19.10;2.97;;;6.00;99.90;;;;;;5105042;28;20440;-72
2023/12/20 02:38:32;;;;;;;18.50;2.57;;;6.00;99.90;;;;;;5092604;28;20433;-72
2023/12/20 02:40:58;;;;;;;16.77;3.30;;;6.00;99.90;;;;;;5100812;28;20762;-72
2023/12/20 02:43:23;;;;;;;19.65;3.03;;;6.00;99.90;;;;;;5100655;28;20410;-72
2023/12/20 02:45:49;;;;;;;22.17;3.10;;;6.00;99.90;;;;;;5105239;28;20401;-72
2023/12/20 02:48:14;;;;;;;17.97;2.73;;;6.00;99.90;;;;;;5092602;28;20434;-72
2023/12/20 02:50:40;;;;;;;14.32;1.90;;;6.00;99.90;;;;;;5101885;28;20396;-72
2023/12/20 02:53:06;;;;;;;18.60;2.70;;;6.00;99.90;;;;;;5097630;28;20509;-72
2023/12/20 02:55:31;;;;;;;15.23;2.55;;;6.10;99.90;;;;;;5100290;28;20397;-72
2023/12/20 02:57:57;;;;;;;18.02;2.75;;;6.10;99.90;;;;;;5095683;28;20398;-72
2023/12/20 03:00:23;;;;;;;14.00;2.17;;;6.10;99.90;;;;;;5100566;28;20770;-72
2023/12/20 03:02:49;;;;;;;13.03;2.30;;;6.10;99.90;;;;;;5095696;28;20417;-72
2023/12/20 03:05:14;;;;;;;15.98;2.05;;;6.10;99.90;;;;;;5100491;28;20392;-72
2023/12/20 03:07:40;;;;;;;16.03;2.30;;;6.10;99.90;;;;;;5096568;28;20421;-72
2023/12/20 03:10:07;;;;;;;20.63;2.40;;;6.10;99.90;;;;;;5092131;28;20770;-72
2023/12/20 03:12:33;;;;;;;16.38;2.22;;;6.10;99.90;;;;;;5094810;28;20484;-72
2023/12/20 03:14:58;;;;;;;21.85;3.35;;;6.10;99.90;;;;;;5098766;28;20937;-72
2023/12/20 03:17:24;;;;;;;19.67;3.20;;;6.10;99.90;;;;;;5096016;28;20405;-72
2023/12/20 03:19:49;;;;;;;16.73;2.57;;;6.10;99.90;;;;;;5093473;28;20418;-72
2023/12/20 03:22:15;;;;;;;20.52;3.25;;;6.10;99.90;;;;;;5083018;28;20595;-72
2023/12/20 03:24:41;;;;;;;17.93;2.80;;;6.00;99.90;;;;;;5102083;28;20396;-72
2023/12/20 03:27:06;;;;;;;20.23;3.00;;;6.00;99.90;;;;;;5099430;28;20398;-72
2023/12/20 03:29:32;;;;;;;21.20;3.40;;;6.00;99.90;;;;;;5102507;28;20962;-72
2023/12/20 03:31:57;;;;;;;17.53;3.07;;;6.00;99.90;;;;;;5098043;28;20402;-72
2023/12/20 03:34:23;;;;;;;21.55;3.45;;;6.00;99.90;;;;;;5102743;28;20515;-72
2023/12/20 03:36:48;;;;;;;25.20;3.90;;;6.10;99.90;;;;;;5097747;28;20930;-72
2023/12/20 03:39:14;;;;;;;20.10;3.38;;;6.00;99.90;;;;;;5103413;28;20416;-72
2023/12/20 03:41:40;;;;;;;29.23;4.20;;;6.00;99.90;;;;;;5097328;28;20489;-72
2023/12/20 03:44:05;;;;;;;21.80;2.90;;;6.00;99.90;;;;;;5101907;28;20392;-72
2023/12/20 03:46:31;;;;;;;23.17;3.60;;;6.00;99.90;;;;;;5098702;28;20904;-72
2023/12/20 03:48:57;;;;;;;20.77;3.50;;;6.00;99.90;;;;;;5102549;28;20396;-72
2023/12/20 03:51:22;;;;;;;18.52;3.13;;;6.00;99.90;;;;;;5097423;28;20414;-72
2023/12/20 03:53:48;;;;;;;18.48;3.15;;;6.00;99.90;;;;;;5102686;28;20862;-72
2023/12/20 03:56:13;;;;;;;18.17;3.37;;;6.00;99.90;;;;;;5099073;28;20404;-72
2023/12/20 03:58:39;;;;;;;17.33;2.63;;;6.00;99.90;;;;;;5102172;28;20453;-72
2023/12/20 04:01:11;;;;;;;13.37;2.23;;;6.10;99.90;;;;;;5097700;28;20508;-72
2023/12/20 04:03:37;;;;;;;16.10;2.38;;;6.20;99.90;;;;;;5102607;28;20392;-72
2023/12/20 04:06:03;;;;;;;15.97;2.60;;;6.20;99.90;;;;;;5097067;28;20907;-72
2023/12/20 04:08:28;;;;;;;15.73;2.20;;;6.20;99.90;;;;;;5099081;28;20453;-72
2023/12/20 04:10:54;;;;;;;12.07;2.33;;;6.20;99.80;;;;;;5097056;28;20410;-72
2023/12/20 04:13:20;;;;;;;14.97;2.40;;;6.10;99.50;;;;;;5098863;28;21107;-72
2023/12/20 04:15:45;;;;;;;19.63;2.70;;;6.10;99.60;;;;;;5095350;28;20417;-72
2023/12/20 04:18:11;;;;;;;17.83;2.67;;;6.10;99.70;;;;;;5098125;28;20432;-72
2023/12/20 04:20:36;;;;;;;19.17;2.70;;;6.10;99.80;;;;;;5094411;28;20479;-72
2023/12/20 04:23:02;;;;;;;16.38;2.83;;;6.10;99.70;;;;;;5093612;28;20392;-72
2023/12/20 04:25:28;;;;;;;21.07;3.20;;;6.10;99.70;;;;;;5099164;28;20767;-72
2023/12/20 04:27:53;;;;;;;19.27;3.35;;;6.10;99.90;;;;;;5101045;28;20407;-72
2023/12/20 04:30:19;;;;;;;19.87;3.47;;;6.10;99.80;;;;;;5096449;28;20410;-72
2023/12/20 04:32:44;;;;;;;19.35;3.50;;;6.10;99.90;;;;;;5101655;28;20458;-72
2023/12/20 04:35:10;;;;;;;23.03;3.70;;;6.10;99.90;;;;;;5096813;28;20796;-72
2023/12/20 04:37:35;;;;;;;26.80;4.47;;;6.20;99.90;;;;;;5100041;28;20411;-72
2023/12/20 04:40:01;;;;;;;22.33;3.45;;;6.20;99.90;;;;;;5096802;28;20385;-72
2023/12/20 04:42:27;;;;;;;21.25;3.60;;;6.30;99.90;;;;;;5102063;28;20396;-72
2023/12/20 04:44:53;;;;;;;31.40;4.57;;;6.30;99.90;;;;;;5098081;28;20442;-72
2023/12/20 04:47:18;;;;;;;26.87;4.20;;;6.30;99.90;;;;;;5100380;28;20407;-72
2023/12/20 04:49:44;;;;;;;24.83;3.90;;;6.30;99.90;;;;;;5096900;28;20497;-72
2023/12/20 04:52:10;;;;;;;26.13;4.27;;;6.30;99.90;;;;;;5101503;28;20400;-72
2023/12/20 04:54:35;;;;;;;21.52;4.20;;;6.30;99.90;;;;;;5096838;28;20439;-72
2023/12/20 04:57:01;;;;;;;24.37;4.60;;;6.30;99.90;;;;;;5100149;28;21107;-72
2023/12/20 04:59:26;;;;;;;30.25;4.78;;;6.30;99.90;;;;;;5098814;28;20571;-72
2023/12/20 05:01:52;;;;;;;22.23;3.72;;;6.30;99.90;;;;;;5099901;28;20496;-72
2023/12/20 05:04:17;;;;;;;25.17;4.37;;;6.30;99.90;;;;;;5096886;28;20946;-72
2023/12/20 05:06:43;;;;;;;26.52;4.57;;;6.30;99.90;;;;;;5099031;28;20388;-72
2023/12/20 05:09:09;;;;;;;29.80;4.00;;;6.40;99.90;;;;;;5080008;28;20508;-72
2023/12/20 05:11:34;;;;;;;24.33;4.28;;;6.40;99.90;;;;;;5096558;28;20401;-72
2023/12/20 05:14:00;;;;;;;25.87;4.20;;;6.50;99.90;;;;;;5096102;28;20432;-72
2023/12/20 05:16:25;;;;;;;24.75;3.97;;;6.50;99.90;;;;;;5097530;28;20392;-72
2023/12/20 05:18:52;;;;;;;22.23;4.27;;;6.60;99.90;;;;;;5097029;28;20846;-72
2023/12/20 05:21:18;;;;;;;27.80;4.20;;;6.60;99.90;;;;;;5089808;28;20484;-72
2023/12/20 05:23:43;;;;;;;21.17;4.05;;;6.70;99.90;;;;;;5094566;28;20512;-72
2023/12/20 05:26:09;;;;;;;21.50;3.77;;;6.80;99.90;;;;;;5100580;28;20408;-72
2023/12/20 05:28:34;;;;;;;25.27;3.90;;;6.80;99.90;;;;;;5098092;28;20409;-72
2023/12/20 05:31:00;;;;;;;21.48;4.00;;;6.90;99.90;;;;;;5100308;28;20405;-72
2023/12/20 05:33:26;;;;;;;22.63;4.00;;;6.90;99.90;;;;;;5099239;28;20463;-72
2023/12/20 05:35:51;;;;;;;21.33;3.53;;;7.00;99.90;;;;;;5101269;28;20799;-72
2023/12/20 05:38:17;;;;;;;23.83;3.87;;;6.90;99.90;;;;;;5097384;28;20406;-72
2023/12/20 05:40:43;;;;;;;22.63;3.70;;;7.00;99.90;;;;;;5101445;28;20475;-72
2023/12/20 05:43:08;;;;;;;22.27;3.72;;;7.00;99.90;;;;;;5097901;28;20414;-72
2023/12/20 05:45:34;;;;;;;19.50;3.30;;;7.00;99.60;;;;;;5100290;28;21284;-72
2023/12/20 05:47:59;;;;;;;23.42;3.67;;;7.00;99.60;;;;;;5099745;28;20971;-72
2023/12/20 05:50:25;;;;;;;25.33;4.13;;;7.00;99.70;;;;;;5106149;28;20396;-72
2023/12/20 05:52:51;;;;;;;25.60;3.67;;;7.00;99.40;;;;;;5101270;28;20819;-72
2023/12/20 05:55:16;;;;;;;26.15;4.05;;;7.00;99.60;;;;;;5094557;28;20428;-72
2023/12/20 05:57:43;;;;;;;24.43;4.60;;;7.00;99.60;;;;;;5102029;28;20398;-72
2023/12/20 06:00:09;;;;;;;25.45;4.10;;;7.00;99.60;;;;;;5103980;28;20461;-72
2023/12/20 06:02:36;;;;;;;34.33;4.50;;;7.00;99.60;;;;;;5100985;28;20430;-72
2023/12/20 06:05:04;;;;;;;21.10;3.95;;;7.10;99.60;;;;;;5105197;28;20770;-72
2023/12/20 06:07:31;;;;;;;24.27;4.23;;;7.10;99.70;;;;;;5099009;28;20449;-72
2023/12/20 06:09:57;;;;;;;21.60;3.80;;;7.10;99.60;;;;;;5102544;28;20449;-72
2023/12/20 06:12:22;;;;;;;26.35;4.40;;;7.10;99.60;;;;;;5099083;28;20509;-72
2023/12/20 06:14:48;;;;;;;26.43;4.03;;;7.10;99.80;;;;;;5096398;28;20433;-72
2023/12/20 06:17:14;;;;;;;24.42;4.13;;;7.10;99.70;;;;;;5079405;28;20401;-72
2023/12/20 06:19:39;;;;;;;23.37;4.40;;;7.10;99.70;;;;;;5103563;28;20461;-71
2023/12/20 06:22:05;;;;;;;24.48;4.88;;;7.10;99.50;;;;;;5086724;28;20479;-72
2023/12/20 06:24:33;;;;;;;26.00;4.53;;;7.20;99.50;;;;;;5103395;28;20424;-72
2023/12/20 06:26:59;;;;;;;26.17;4.40;;;7.20;99.50;;;;;;5100480;28;20421;-72
2023/12/20 06:29:24;;;;;;;26.57;4.80;;;7.20;99.50;;;;;;5095491;28;20396;-72
2023/12/20 06:31:50;;;;;;;24.83;4.03;;;7.20;99.40;;;;;;5101184;28;21453;-69
2023/12/20 06:34:15;;;;;;;26.53;4.63;;;7.20;99.50;;;;;;5102596;28;20522;-70
2023/12/20 06:36:41;;;;;;;27.15;4.65;;;7.10;99.60;;;;;;5092042;28;20791;-70
2023/12/20 06:39:08;;;;;;;25.10;4.13;;;7.20;99.70;;;;;;5072990;28;20521;-71
2023/12/20 06:41:34;;;;;;;24.58;4.50;;;7.20;99.70;;;;;;5097636;28;20394;-71
2023/12/20 06:43:59;;;;;;;23.60;4.30;;;7.20;99.70;;;;;;5101729;28;20427;-71
2023/12/20 06:46:25;;;;;;;25.80;3.78;;;7.20;99.60;;;;;;5099042;28;20406;-71
2023/12/20 06:48:51;;;;;;;28.00;4.57;;;7.20;99.60;;;;;;5089500;28;20426;-71
2023/12/20 06:51:17;;;;;;;20.65;3.85;;;7.20;99.40;;;;;;5096770;28;20402;-71
2023/12/20 06:53:43;;;;;;;24.00;4.07;;;7.20;99.30;;;;;;5099394;28;20427;-71
2023/12/20 06:56:11;;;;;;;27.57;4.13;;;7.30;99.20;;;;;;5100406;28;20413;-71
2023/12/20 06:58:37;;;;;;;23.58;4.65;;;7.30;98.90;;;;;;5077410;28;20424;-71
2023/12/20 07:01:04;;;;;;;23.33;4.07;;;7.30;99.00;;;;;;5088140;28;20402;-71
2023/12/20 07:03:29;;;;;;;26.70;5.07;;;7.30;99.10;;;;;;5095385;28;20410;-72
2023/12/20 07:05:55;;;;;;;28.98;4.72;;;7.30;99.00;;;;;;5095325;28;20413;-72
2023/12/20 07:08:21;;;;;;;28.80;4.90;;;7.30;99.10;;;;;;5101347;28;20972;-71
2023/12/20 07:10:46;;;;;;;28.98;4.65;;;7.30;99.10;;;;;;5098237;28;20436;-72
2023/12/20 07:13:12;;;;;;;23.80;4.87;;;7.30;99.20;;;;;;5078506;28;20410;-72
2023/12/20 07:15:38;;;;;;;22.70;4.70;;;7.30;99.40;;;;;;5096121;28;21354;-72
2023/12/20 07:18:05;;;;;;;29.35;4.75;;;7.30;99.50;;;;;;5087624;28;20417;-71
2023/12/20 07:20:30;;;;;;;24.83;4.28;;;7.30;99.70;;;;;;5075080;28;20424;-72
2023/12/20 07:22:56;;;;;;;26.73;4.40;;;7.30;99.60;;;;;;5093872;28;20400;-72
2023/12/20 07:25:22;;;;;;;23.80;4.10;;;7.30;99.70;;;;;;5101188;28;20406;-72
2023/12/20 07:27:47;;;;;;;28.57;4.63;;;7.30;99.70;;;;;;5102132;28;21207;-71
2023/12/20 07:30:13;;;;;;;22.50;4.00;;;7.40;99.60;;;;;;5099584;28;20532;-72
2023/12/20 07:32:39;;;;;;;19.75;4.03;;;7.40;99.40;;;;;;5097238;28;20918;-72
2023/12/20 07:35:05;;;;;;;26.70;4.37;;;7.40;99.10;;;;;;5097479;28;20425;-72
2023/12/20 07:37:31;;;;;;;27.48;4.97;;;7.50;99.00;;;;;;5102109;28;20408;-72
2023/12/20 07:39:56;;;;;;;24.90;4.47;;;7.50;98.70;;;;;;5100398;28;20733;-72
2023/12/20 07:42:22;;;;;;;20.83;3.73;;;7.50;98.50;;;;;;5100995;28;20457;-72
2023/12/20 07:44:48;;;;;;;23.00;4.78;;;7.60;98.00;;;;;;5091433;28;20417;-72
2023/12/20 07:47:16;;;;;;;27.07;4.57;;;7.60;97.50;;;;;;5099128;28;20773;-72
2023/12/20 07:49:42;;;;;;;24.33;4.13;;;7.60;97.50;;;;;;5098946;28;20394;-72
2023/12/20 07:52:08;;;;;;;24.50;4.50;;;7.70;97.00;;;;;;5100707;28;20403;-72
2023/12/20 07:54:33;;;;;;;24.73;4.17;;;7.70;96.40;;;;;;5098741;28;20442;-72
2023/12/20 07:56:59;;;;;;;28.40;5.10;;;7.80;96.30;;;;;;5101009;28;20400;-72
2023/12/20 07:59:25;;;;;;;25.07;4.10;;;7.70;96.30;;;;;;5098786;28;20406;-72
2023/12/20 08:01:50;;;;;;;23.10;4.87;;;7.80;96.40;;;;;;5099419;28;20902;-71
2023/12/20 08:04:16;;;;;;;25.25;4.32;;;7.70;96.60;;;;;;5099154;28;20809;-72
2023/12/20 08:06:41;;;;;;;20.60;4.10;;;7.70;96.80;;;;;;5099381;28;20406;-72
2023/12/20 08:09:07;;;;;;;27.75;4.30;;;7.60;96.70;;;;;;5096980;28;20406;-72
2023/12/20 08:11:32;;;;;;;20.83;3.60;;;7.60;96.90;;;;;;5094781;28;20410;-72
2023/12/20 08:13:58;;;;;;;23.08;4.60;;;7.60;96.70;;;;;;5095336;28;20448;-71
2023/12/20 08:16:24;;;;;;;23.40;4.30;;;7.60;97.00;;;;;;5099431;28;20731;-72
2023/12/20 08:18:52;;;;;;;23.07;4.53;;;7.60;96.90;;;;;;5097746;28;20414;-72
2023/12/20 08:21:20;;;;;;;31.25;4.82;;;7.70;96.60;;;;;;5089988;28;20433;-72
2023/12/20 08:23:46;;;;;;;25.08;4.15;;;7.70;96.50;;;;;;5095563;28;20436;-72
2023/12/20 08:26:12;;;;;;;23.77;3.90;;;7.70;96.60;;;;;;5079091;28;20493;-72
2023/12/20 08:28:37;;;;;;;20.58;4.18;;;7.80;96.40;;;;;;5097508;28;20481;-72
2023/12/20 08:31:03;;;;;;;25.20;4.28;;;7.80;96.30;;;;;;5102901;28;20404;-72
2023/12/20 08:33:29;;;;;;;21.50;3.50;;;7.80;96.30;;;;;;5099509;28;20434;-72
2023/12/20 08:35:54;;;;;;;8.85;1.10;;;7.80;95.80;;;;;;5100762;28;20821;-72
2023/12/20 08:38:20;;;;;;;13.40;1.40;;;7.50;93.20;;;;;;5099528;28;20927;-72
2023/12/20 08:40:46;;;;;;;10.57;1.40;;;7.20;92.10;;;;;;5091971;28;20495;-72
2023/12/20 08:43:11;;;;;;;11.43;1.20;;;6.90;92.90;;;;;;5100058;28;20544;-72
2023/12/20 08:45:38;;;;;;;11.47;1.77;;;6.70;94.10;;;;;;5099682;28;20407;-72
2023/12/20 08:48:04;;;;;;;10.68;1.10;;;6.50;95.20;;;;;;5098427;28;20409;-72
2023/12/20 08:50:30;;;;;;;12.83;1.70;;;6.40;96.00;;;;;;5094744;28;20402;-72
2023/12/20 08:52:56;;;;;;;9.87;1.23;;;6.30;96.60;;;;;;5096123;28;20402;-72
2023/12/20 08:55:22;;;;;;;12.47;1.20;;;6.20;96.90;;;;;;5090520;28;20454;-72
2023/12/20 08:57:47;;;;;;;10.93;1.33;;;6.20;97.40;;;;;;5098651;28;20771;-72
2023/12/20 09:00:13;;;;;;;9.63;1.20;;;6.10;97.70;;;;;;5094943;28;20799;-72
2023/12/20 09:02:39;;;;;;;8.93;1.10;;;6.10;98.50;;;;;;5094750;28;20424;-72
2023/12/20 09:05:05;;;;;;;14.23;1.53;;;6.10;98.90;;;;;;5090548;28;21065;-72
2023/12/20 09:07:31;;;;;;;10.02;0.80;;;6.00;99.10;;;;;;5096467;28;20943;-72
2023/12/20 09:09:58;;;;;;;9.27;1.00;;;5.90;98.80;;;;;;5097491;28;20497;-72
2023/12/20 09:12:24;;;;;;;12.05;1.30;;;5.90;99.10;;;;;;5097012;28;20760;-72
2023/12/20 09:14:51;;;;;;;14.07;1.52;;;5.80;99.20;;;;;;5095420;28;20531;-72
2023/12/20 09:17:18;;;;;;;10.80;1.13;;;5.80;99.50;;;;;;5094883;28;20412;-72
2023/12/20 09:19:44;;;;;;;9.13;1.10;;;5.80;99.70;;;;;;5072610;28;20418;-72
2023/12/20 09:22:10;;;;;;;11.82;1.15;;;5.80;99.90;;;;;;5089586;28;20409;-72
2023/12/20 09:24:36;;;;;;;8.98;1.10;;;5.80;99.90;;;;;;5096237;28;20439;-72
2023/12/20 09:27:02;;;;;;;11.60;1.15;;;5.80;99.90;;;;;;5101730;28;20483;-72
2023/12/20 09:29:28;;;;;;;6.43;1.02;;;5.80;99.90;;;;;;5106054;28;20427;-72
2023/12/20 09:31:54;;;;;;;8.90;0.95;;;5.90;99.90;;;;;;5101525;28;20417;-72
2023/12/20 09:34:20;;;;;;;11.30;1.10;;;5.90;99.90;;;;;;5105012;28;20938;-72
2023/12/20 09:36:46;;;;;;;11.05;1.75;;;5.90;99.90;;;;;;5101134;28;20840;-72
2023/12/20 09:39:19;;;;;;;10.93;1.25;;;6.00;99.90;;;;;;5103553;28;20411;-72
2023/12/20 09:41:48;;;;;;;10.15;1.15;;;6.10;99.90;;;;;;5091265;28;20426;-72
2023/12/20 09:44:20;;;;;;;8.88;1.20;;;6.10;99.90;;;;;;5094233;28;20422;-72
2023/12/20 09:46:49;;;;;;;8.88;0.98;;;6.10;99.70;;;;;;5098882;28;20412;-72
2023/12/20 09:49:17;;;;;;;8.48;1.48;;;6.10;99.30;;;;;;5104340;28;20435;-72
2023/12/20 09:51:43;;;;;;;10.43;1.20;;;6.10;99.10;;;;;;5093324;28;20471;-72
2023/12/20 09:54:09;;;;;;;10.27;1.35;;;6.10;99.20;;;;;;5096675;28;20888;-72
2023/12/20 09:56:36;;;;;;;11.33;1.50;;;6.20;99.30;;;;;;5093364;28;20479;-72
2023/12/20 09:59:02;;;;;;;14.38;1.67;;;6.30;99.70;;;;;;5101800;28;20804;-72
2023/12/20 10:01:28;;;;;;;14.63;1.80;;;6.50;99.90;;;;;;5096831;28;20425;-72
2023/12/20 10:03:54;;;;;;;14.48;1.88;;;6.60;99.70;;;;;;5100528;28;20462;-72
2023/12/20 10:06:21;;;;;;;12.40;1.65;;;6.60;98.90;;;;;;5094927;28;20437;-72
2023/12/20 10:08:47;;;;;;;14.15;1.60;;;6.70;98.40;;;;;;5095134;28;20436;-72
2023/12/20 10:11:13;;;;;;;9.75;1.40;;;6.70;98.10;;;;;;5096661;28;20816;-72
2023/12/20 10:13:41;;;;;;;12.50;2.28;;;6.70;97.80;;;;;;5100107;28;20428;-72
2023/12/20 10:16:07;;;;;;;14.02;2.15;;;6.80;97.90;;;;;;5095938;28;20457;-72
2023/12/20 10:18:33;;;;;;;14.15;2.85;;;6.90;98.20;;;;;;5100962;28;20894;-72
2023/12/20 10:21:00;;;;;;;18.65;2.10;;;7.00;98.30;;;;;;5073750;28;20418;-72
2023/12/20 10:23:25;;;;;;;16.92;2.67;;;7.20;97.40;;;;;;5099527;28;20392;-72
2023/12/20 10:25:58;;;;;;;15.47;2.27;;;7.30;96.20;;;;;;5101756;28;20400;-72
2023/12/20 10:28:27;;;;;;;15.02;2.25;;;7.40;94.20;;;;;;5103885;28;20902;-72
2023/12/20 10:30:54;;;;;;;15.10;2.25;;;7.50;94.30;;;;;;5102099;28;20472;-72
2023/12/20 10:33:34;;;;;;;16.30;2.50;;;7.50;92.50;;;;;;5101572;28;20910;-72
2023/12/20 10:35:59;;;;;;;15.85;2.45;;;7.60;92.60;;;;;;5104901;28;20400;-72
2023/12/20 10:38:25;;;;;;;14.73;2.13;;;7.70;90.50;;;;;;5100899;28;20409;-72
2023/12/20 10:40:56;;;;;;;14.23;2.27;;;7.70;90.20;;;;;;5097269;28;20414;-72
2023/12/20 10:43:26;;;;;;;17.67;2.22;;;7.70;83.80;;;;;;5079984;28;20417;-72
2023/12/20 10:45:52;;;;;;;12.45;2.25;;;7.70;80.00;;;;;;5096664;28;20970;-72
2023/12/20 10:48:18;;;;;;;14.88;2.25;;;7.70;77.80;;;;;;5090081;28;20402;-72
2023/12/20 10:50:45;;;;;;;20.58;2.58;;;7.80;79.80;;;;;;5095922;28;20412;-72
2023/12/20 10:53:12;;;;;;;15.68;3.25;;;8.00;80.00;;;;;;5089461;28;20402;-72
2023/12/20 10:55:38;;;;;;;17.90;2.80;;;8.10;71.50;;;;;;5088414;28;20489;-72
2023/12/20 10:58:10;;;;;;;17.02;2.60;;;8.10;72.20;;;;;;5095424;28;20493;-72
2023/12/20 11:00:42;;;;;;;18.50;3.20;;;8.20;74.10;;;;;;5094133;28;20409;-72
2023/12/20 11:03:10;;;;;;;15.98;2.63;;;8.40;77.10;;;;;;5089850;28;20460;-72
2023/12/20 11:05:55;;;;;;;15.95;2.70;;;8.50;69.50;;;;;;5095716;28;20418;-72
2023/12/20 11:08:32;;;;;;;16.02;2.60;;;8.60;61.10;;;;;;5097972;28;20408;-72
2023/12/20 11:11:12;;;;;;;20.17;3.20;;;8.80;62.20;;;;;;5097258;28;20412;-72
2023/12/20 11:14:06;;;;;;;15.07;2.20;;;9.10;60.80;;;;;;5102097;28;20506;-72
2023/12/20 11:16:32;;;;;;;17.83;3.22;;;9.30;48.70;;;;;;5088985;28;20421;-72
2023/12/20 11:19:04;;;;;;;13.18;2.22;;;9.40;36.40;;;;;;5097273;28;20444;-72
2023/12/20 11:21:30;;;;;;;15.27;2.57;;;9.40;33.90;;;;;;5093811;28;20516;-72
2023/12/20 11:23:55;;;;;;;17.40;2.90;;;9.20;38.90;;;;;;5097665;28;20484;-72
2023/12/20 11:26:30;;;;;;;14.70;2.70;;;9.00;29.60;;;;;;5096679;28;20406;-72
2023/12/20 11:29:34;;;;;;;22.75;3.45;;;9.00;35.10;;;;;;5088569;28;20824;-72
2023/12/20 11:32:01;;;;;;;18.42;3.92;;;9.00;34.10;;;;;;5099813;28;20425;-72
2023/12/20 11:34:28;;;;;;;16.98;2.50;;;8.90;29.50;;;;;;5086886;28;20434;-72
2023/12/20 11:36:59;;;;;;;18.63;3.17;;;8.80;37.70;;;;;;5096703;28;20410;-72
2023/12/20 11:39:26;;;;;;;16.97;3.00;;;8.70;36.30;;;;;;5103299;28;20821;-72
2023/12/20 11:41:53;;;;;;;19.33;3.35;;;8.70;42.20;;;;;;5095992;28;20413;-72
2023/12/20 11:44:20;;;;;;;20.88;3.22;;;8.60;44.50;;;;;;5102169;28;20772;-72
2023/12/20 11:46:46;;;;;;;20.65;3.35;;;8.60;40.00;;;;;;5096332;28;20471;-72
2023/12/20 11:49:12;;;;;;;19.55;3.13;;;8.50;41.50;;;;;;5102296;28;20404;-72
2023/12/20 11:51:42;;;;;;;25.73;3.97;;;8.50;42.10;;;;;;5096237;28;20772;-72
2023/12/20 11:54:08;;;;;;;17.08;3.35;;;8.50;45.20;;;;;;5101072;28;20447;-72
2023/12/20 11:56:36;;;;;;;22.00;3.55;;;8.50;47.90;;;;;;5088099;28;20406;-72
2023/12/20 11:59:01;;;;;;;22.10;3.85;;;8.50;46.90;;;;;;5100165;28;20770;-72
2023/12/20 12:01:27;;;;;;;20.30;3.50;;;8.40;45.90;;;;;;5094103;28;20402;-72
2023/12/20 12:04:05;;;;;;;20.37;3.23;;;8.40;48.20;;;;;;5099186;28;20594;-72
2023/12/20 12:06:31;;;;;;;22.85;4.20;;;8.30;49.90;;;;;;5096093;28;20442;-72
2023/12/20 12:08:57;;;;;;;19.47;3.50;;;8.20;50.30;;;;;;5098888;28;20435;-72
2023/12/20 12:11:23;;;;;;;18.50;3.90;;;8.20;50.50;;;;;;5093244;28;20768;-72
2023/12/20 12:13:49;;;;;;;20.45;3.88;;;8.20;54.10;;;;;;5096985;28;20509;-72
2023/12/20 12:16:19;;;;;;;23.50;3.92;;;8.10;56.10;;;;;;5088809;28;20409;-72
2023/12/20 12:18:45;;;;;;;20.77;3.42;;;8.10;58.50;;;;;;5095753;28;20454;-72
2023/12/20 12:21:20;;;;;;;16.25;2.70;;;8.00;61.60;;;;;;5088796;28;20398;-72
2023/12/20 12:23:46;;;;;;;17.27;2.70;;;7.90;62.90;;;;;;5096321;28;20417;-72
2023/12/20 12:26:12;;;;;;;22.30;4.05;;;7.90;65.10;;;;;;5095830;28;20399;-72
2023/12/20 12:28:40;;;;;;;19.70;3.05;;;7.80;67.00;;;;;;5094924;28;20410;-72
2023/12/20 12:31:06;;;;;;;20.13;3.20;;;7.80;68.00;;;;;;5102917;28;20443;-72
2023/12/20 12:33:32;;;;;;;20.57;3.53;;;7.80;69.30;;;;;;5099740;28;20503;-72
2023/12/20 12:35:58;;;;;;;19.90;3.22;;;7.80;70.20;;;;;;5100906;28;20773;-72
2023/12/20 12:38:27;;;;;;;18.67;3.00;;;7.70;69.50;;;;;;5098948;28;20456;-72
2023/12/20 12:40:54;;;;;;;20.23;3.38;;;7.70;69.20;;;;;;5102435;28;20499;-72
2023/12/20 12:43:20;;;;;;;19.88;2.83;;;7.70;70.40;;;;;;5099079;28;20433;-72